createdAt,value
2018-03-18T00:02:16.440Z,90.50
2018-03-18T00:04:42.405Z,90.60
2018-03-18T00:07:08.381Z,90.60
2018-03-18T00:09:34.336Z,90.70
2018-03-18T00:12:00.341Z,90.70
2018-03-18T00:14:26.432Z,90.60
2018-03-18T00:16:52.369Z,90.70
2018-03-18T00:19:18.463Z,90.60
2018-03-18T00:21:44.408Z,90.60
2018-03-18T00:24:10.404Z,90.70
2018-03-18T00:26:36.358Z,90.70
2018-03-18T00:29:02.344Z,90.60
2018-03-18T00:31:29.034Z,90.50
2018-03-18T00:33:55.145Z,90.60
2018-03-18T00:36:21.091Z,90.60
2018-03-18T00:38:47.076Z,90.70
2018-03-18T00:41:13.042Z,90.60
2018-03-18T00:43:39.010Z,90.50
2018-03-18T00:46:04.985Z,90.40
2018-03-18T00:48:30.921Z,90.40
2018-03-18T00:50:57.010Z,90.40
2018-03-18T00:53:22.953Z,90.40
2018-03-18T00:55:48.925Z,90.60
2018-03-18T00:58:14.864Z,90.50
2018-03-18T01:00:40.845Z,90.60
2018-03-18T01:03:07.550Z,90.50
2018-03-18T01:05:33.632Z,90.50
2018-03-18T01:07:59.597Z,90.60
2018-03-18T01:10:25.608Z,90.60
2018-03-18T01:12:51.692Z,90.70
2018-03-18T01:15:17.637Z,91.00
2018-03-18T01:17:43.636Z,90.70
2018-03-18T01:20:09.620Z,90.60
2018-03-18T01:22:35.698Z,90.50
2018-03-18T01:25:01.679Z,90.60
2018-03-18T01:27:27.644Z,90.70
2018-03-18T01:29:54.331Z,90.70
2018-03-18T01:32:20.306Z,90.70
2018-03-18T01:34:46.250Z,90.60
2018-03-18T01:37:12.348Z,90.80
2018-03-18T01:39:38.276Z,90.80
2018-03-18T01:42:04.262Z,90.60
2018-03-18T01:44:30.957Z,90.60
2018-03-18T01:46:56.915Z,90.60
2018-03-18T01:49:23.644Z,90.60
2018-03-18T01:51:49.576Z,90.60
2018-03-18T01:54:16.400Z,90.80
2018-03-18T01:56:42.335Z,90.50
2018-03-18T01:59:08.324Z,90.70
2018-03-18T02:01:34.251Z,91.00
2018-03-18T02:04:00.241Z,90.60
2018-03-18T02:06:26.171Z,90.60
2018-03-18T02:08:52.272Z,90.50
2018-03-18T02:11:19.008Z,90.60
2018-03-18T02:13:45.068Z,90.60
2018-03-18T02:16:11.041Z,90.50
2018-03-18T02:18:37.737Z,90.60
2018-03-18T02:21:03.720Z,90.60
2018-03-18T02:23:29.676Z,90.40
2018-03-18T02:25:55.776Z,90.40
2018-03-18T02:28:21.727Z,90.40
2018-03-18T02:30:47.677Z,90.50
2018-03-18T02:33:13.657Z,90.50
2018-03-18T02:35:40.336Z,90.50
2018-03-18T02:38:06.307Z,90.50
2018-03-18T02:40:32.246Z,90.50
2018-03-18T02:42:58.348Z,90.50
2018-03-18T02:45:24.305Z,90.40
2018-03-18T02:47:50.296Z,90.40
2018-03-18T02:50:16.239Z,90.20
2018-03-18T02:52:42.180Z,90.30
2018-03-18T02:55:08.167Z,90.40
2018-03-18T02:57:34.123Z,90.40
2018-03-18T03:00:00.226Z,90.40
2018-03-18T03:02:26.180Z,90.30
2018-03-18T03:04:52.141Z,90.30
2018-03-18T03:07:18.088Z,90.40
2018-03-18T03:09:44.082Z,90.20
2018-03-18T03:12:10.760Z,90.00
2018-03-18T03:14:36.832Z,90.00
2018-03-18T03:17:03.658Z,90.00
2018-03-18T03:19:29.608Z,90.00
2018-03-18T03:21:55.608Z,90.00
2018-03-18T03:24:21.560Z,89.80
2018-03-18T03:26:47.526Z,89.60
2018-03-18T03:29:13.470Z,89.20
2018-03-18T03:31:39.545Z,89.30
2018-03-18T03:34:05.502Z,89.40
2018-03-18T03:36:31.466Z,88.70
2018-03-18T03:38:58.184Z,89.10
2018-03-18T03:41:24.160Z,89.10
2018-03-18T03:43:50.125Z,89.10
2018-03-18T03:46:16.192Z,89.10
2018-03-18T03:48:42.204Z,89.20
2018-03-18T03:51:08.145Z,89.10
2018-03-18T03:53:34.141Z,89.00
2018-03-18T03:56:00.085Z,88.80
2018-03-18T03:58:26.017Z,88.80
2018-03-18T04:00:51.980Z,88.60
2018-03-18T04:03:18.077Z,88.80
2018-03-18T04:05:44.017Z,88.70
2018-03-18T04:08:09.959Z,88.40
2018-03-18T04:10:35.915Z,88.30
2018-03-18T04:13:01.880Z,88.40
2018-03-18T04:15:27.984Z,88.20
2018-03-18T04:17:53.927Z,88.30
2018-03-18T04:20:19.914Z,88.10
2018-03-18T04:22:45.880Z,88.00
2018-03-18T04:25:11.824Z,87.90
2018-03-18T04:27:37.783Z,87.80
2018-03-18T04:30:03.721Z,87.80
2018-03-18T04:32:29.700Z,87.90
2018-03-18T04:34:55.665Z,87.80
2018-03-18T04:37:21.752Z,87.90
2018-03-18T04:39:47.733Z,87.30
2018-03-18T04:42:13.695Z,86.80
2018-03-18T04:44:39.625Z,86.90
2018-03-18T04:47:05.614Z,87.10
2018-03-18T04:49:32.324Z,87.60
2018-03-18T04:51:58.277Z,86.90
2018-03-18T04:54:25.162Z,87.20
2018-03-18T04:56:51.088Z,87.20
2018-03-18T04:59:17.072Z,87.00
2018-03-18T05:01:43.081Z,87.20
2018-03-18T05:04:11.409Z,86.90
2018-03-18T05:06:37.381Z,86.70
2018-03-18T05:09:04.155Z,86.70
2018-03-18T05:11:30.093Z,86.70
2018-03-18T05:13:56.251Z,86.50
2018-03-18T05:16:22.216Z,86.60
2018-03-18T05:18:48.230Z,86.30
2018-03-18T05:21:14.175Z,85.80
2018-03-18T05:23:40.124Z,86.00
2018-03-18T05:26:06.232Z,86.00
2018-03-18T05:28:32.196Z,85.60
2018-03-18T05:30:58.180Z,85.90
2018-03-18T05:33:24.115Z,85.90
2018-03-18T05:35:50.111Z,85.60
2018-03-18T05:38:16.068Z,85.70
2018-03-18T05:40:42.016Z,85.70
2018-03-18T05:43:08.119Z,85.20
2018-03-18T05:45:34.053Z,85.30
2018-03-18T05:48:00.013Z,85.30
2018-03-18T05:50:25.958Z,85.00
2018-03-18T05:52:51.968Z,84.70
2018-03-18T05:55:17.937Z,84.70
2018-03-18T05:57:43.886Z,84.20
2018-03-18T06:00:10.732Z,84.60
2018-03-18T06:02:37.405Z,84.00
2018-03-18T06:05:03.392Z,84.00
2018-03-18T06:07:30.077Z,83.70
2018-03-18T06:09:56.056Z,83.70
2018-03-18T06:12:22.749Z,83.50
2018-03-18T06:14:49.003Z,83.50
2018-03-18T06:17:14.942Z,83.90
2018-03-18T06:19:40.891Z,83.80
2018-03-18T06:22:06.854Z,83.60
2018-03-18T06:24:32.816Z,82.90
2018-03-18T06:26:58.792Z,82.30
2018-03-18T06:29:24.731Z,82.70
2018-03-18T06:31:50.812Z,82.40
2018-03-18T06:34:17.496Z,82.10
2018-03-18T06:36:43.428Z,82.10
2018-03-18T06:39:10.152Z,82.40
2018-03-18T06:41:36.104Z,82.40
2018-03-18T06:44:02.822Z,82.10
2018-03-18T06:46:28.764Z,82.20
2018-03-18T06:48:54.693Z,81.70
2018-03-18T06:51:20.664Z,81.70
2018-03-18T06:53:46.608Z,81.60
2018-03-18T06:56:13.328Z,81.50
2018-03-18T06:58:39.287Z,81.40
2018-03-18T07:01:05.244Z,81.40
2018-03-18T07:03:31.192Z,81.40
2018-03-18T07:05:57.277Z,81.80
2018-03-18T07:08:23.232Z,81.40
2018-03-18T07:10:49.197Z,81.00
2018-03-18T07:13:15.876Z,81.50
2018-03-18T07:15:41.991Z,81.40
2018-03-18T07:18:07.932Z,81.50
2018-03-18T07:20:33.930Z,80.40
2018-03-18T07:22:59.865Z,80.50
2018-03-18T07:25:25.858Z,81.20
2018-03-18T07:27:51.821Z,81.40
2018-03-18T07:30:17.761Z,80.60
2018-03-18T07:32:43.712Z,81.20
2018-03-18T07:35:10.402Z,80.80
2018-03-18T07:37:36.512Z,80.90
2018-03-18T07:40:02.483Z,80.80
2018-03-18T07:42:29.227Z,80.20
2018-03-18T07:44:55.409Z,80.10
2018-03-18T07:47:21.425Z,80.70
2018-03-18T07:49:47.397Z,80.40
2018-03-18T07:52:14.156Z,80.60
2018-03-18T07:54:40.138Z,80.60
2018-03-18T07:57:06.109Z,80.80
2018-03-18T07:59:32.091Z,80.10
2018-03-18T08:01:58.134Z,79.50
2018-03-18T08:04:24.081Z,80.00
2018-03-18T08:06:50.074Z,80.40
2018-03-18T08:09:16.921Z,80.00
2018-03-18T08:11:43.694Z,80.80
2018-03-18T08:14:09.829Z,80.00
2018-03-18T08:16:35.801Z,79.90
2018-03-18T08:19:01.783Z,79.80
2018-03-18T08:21:27.761Z,80.50
2018-03-18T08:23:54.615Z,80.40
2018-03-18T08:26:20.616Z,80.40
2018-03-18T08:28:46.546Z,80.00
2018-03-18T08:31:13.274Z,79.50
2018-03-18T08:33:39.985Z,79.70
2018-03-18T08:36:05.972Z,79.70
2018-03-18T08:38:31.979Z,79.20
2018-03-18T08:40:58.726Z,78.50
2018-03-18T08:43:24.676Z,78.50
2018-03-18T08:45:50.660Z,78.40
2018-03-18T08:48:17.353Z,78.60
2018-03-18T08:50:43.359Z,78.60
2018-03-18T08:53:09.321Z,77.80
2018-03-18T08:55:35.284Z,78.50
2018-03-18T08:58:01.381Z,78.70
2018-03-18T09:00:28.113Z,78.10
2018-03-18T09:02:54.105Z,78.10
2018-03-18T09:05:20.104Z,77.70
2018-03-18T09:07:46.094Z,78.20
2018-03-18T09:10:12.157Z,77.20
2018-03-18T09:12:38.129Z,77.20
2018-03-18T09:15:06.468Z,76.60
2018-03-18T09:17:32.453Z,76.60
2018-03-18T09:19:58.486Z,76.50
2018-03-18T09:22:24.462Z,75.70
2018-03-18T09:24:50.472Z,75.10
2018-03-18T09:27:16.481Z,74.40
2018-03-18T09:29:42.485Z,75.40
2018-03-18T09:32:08.609Z,76.00
2018-03-18T09:34:34.619Z,75.30
2018-03-18T09:37:00.637Z,75.60
2018-03-18T09:39:26.615Z,75.50
2018-03-18T09:41:52.612Z,75.90
2018-03-18T09:44:18.594Z,76.30
2018-03-18T09:46:45.394Z,76.00
2018-03-18T09:49:11.363Z,76.10
2018-03-18T09:51:37.353Z,76.00
2018-03-18T09:54:03.296Z,75.90
2018-03-18T09:56:30.052Z,76.20
2018-03-18T09:58:56.039Z,76.10
2018-03-18T10:01:21.992Z,76.00
2018-03-18T10:03:48.686Z,75.80
2018-03-18T10:06:14.627Z,75.80
2018-03-18T10:08:40.636Z,76.90
2018-03-18T10:11:06.632Z,75.70
2018-03-18T10:13:32.812Z,75.40
2018-03-18T10:15:59.585Z,75.80
2018-03-18T10:18:25.694Z,75.80
2018-03-18T10:20:52.443Z,74.40
2018-03-18T10:23:18.468Z,74.40
2018-03-18T10:25:44.449Z,75.20
2018-03-18T10:28:10.418Z,74.90
2018-03-18T10:30:36.444Z,75.40
2018-03-18T10:33:02.497Z,73.80
2018-03-18T10:35:28.472Z,73.40
2018-03-18T10:37:55.357Z,73.40
2018-03-18T10:40:22.327Z,73.40
2018-03-18T10:42:48.345Z,73.10
2018-03-18T10:45:14.348Z,73.50
2018-03-18T10:47:40.335Z,73.10
2018-03-18T10:50:06.315Z,73.80
2018-03-18T10:52:32.497Z,74.00
2018-03-18T10:54:59.075Z,73.90
2018-03-18T10:57:25.426Z,74.20
2018-03-18T10:59:52.204Z,74.00
2018-03-18T11:02:18.201Z,74.00
2018-03-18T11:04:45.259Z,73.80
2018-03-18T11:07:11.301Z,73.70
2018-03-18T11:09:37.425Z,73.60
2018-03-18T11:12:03.407Z,73.50
2018-03-18T11:14:29.549Z,74.30
2018-03-18T11:16:56.242Z,73.60
2018-03-18T11:19:22.213Z,73.50
2018-03-18T11:21:48.981Z,74.10
2018-03-18T11:24:14.990Z,74.10
2018-03-18T11:26:41.913Z,73.50
2018-03-18T11:29:08.630Z,72.80
2018-03-18T11:31:34.742Z,72.80
2018-03-18T11:34:00.705Z,71.90
2018-03-18T11:36:27.462Z,71.20
2018-03-18T11:38:53.413Z,71.30
2018-03-18T11:41:19.400Z,70.80
2018-03-18T11:43:45.349Z,72.40
2018-03-18T11:46:11.449Z,71.70
2018-03-18T11:48:37.419Z,70.90
2018-03-18T11:51:03.435Z,72.50
2018-03-18T11:53:29.409Z,71.90
2018-03-18T11:55:56.180Z,71.30
2018-03-18T11:58:22.125Z,71.30
2018-03-18T12:00:48.094Z,72.90
2018-03-18T12:03:14.223Z,71.40
2018-03-18T12:05:40.922Z,70.80
2018-03-18T12:08:06.948Z,70.70
2018-03-18T12:10:32.928Z,69.90
2018-03-18T12:12:58.953Z,71.30
2018-03-18T12:15:25.074Z,71.40
2018-03-18T12:17:51.224Z,70.40
2018-03-18T12:20:17.178Z,70.30
2018-03-18T12:22:43.221Z,71.20
2018-03-18T12:25:09.985Z,70.70
2018-03-18T12:27:36.085Z,70.70
2018-03-18T12:30:02.790Z,70.10
2018-03-18T12:32:28.768Z,70.10
2018-03-18T12:34:54.739Z,71.20
2018-03-18T12:37:20.711Z,70.70
2018-03-18T12:39:46.683Z,71.30
2018-03-18T12:42:12.809Z,71.70
2018-03-18T12:44:38.785Z,71.30
2018-03-18T12:47:04.829Z,70.30
2018-03-18T12:49:30.838Z,71.40
2018-03-18T12:51:56.854Z,70.90
2018-03-18T12:54:22.824Z,71.30
2018-03-18T12:56:48.789Z,70.40
2018-03-18T12:59:14.912Z,70.40
2018-03-18T13:01:40.916Z,70.80
2018-03-18T13:04:07.654Z,71.00
2018-03-18T13:06:33.620Z,71.00
2018-03-18T13:08:59.651Z,70.20
2018-03-18T13:11:25.604Z,70.60
2018-03-18T13:13:51.785Z,71.40
2018-03-18T13:16:18.455Z,70.80
2018-03-18T13:18:44.388Z,70.80
2018-03-18T13:21:10.557Z,70.60
2018-03-18T13:23:36.517Z,70.80
2018-03-18T13:26:02.552Z,70.60
2018-03-18T13:28:28.560Z,70.70
2018-03-18T13:30:54.536Z,70.70
2018-03-18T13:33:21.290Z,70.10
2018-03-18T13:35:47.453Z,70.10
2018-03-18T13:38:13.416Z,70.00
2018-03-18T13:40:40.189Z,69.20
2018-03-18T13:43:06.152Z,69.10
2018-03-18T13:45:32.141Z,70.50
2018-03-18T13:47:58.120Z,69.70
2018-03-18T13:50:24.099Z,70.70
2018-03-18T13:52:50.230Z,70.30
2018-03-18T13:55:16.196Z,69.00
2018-03-18T13:57:42.951Z,68.10
2018-03-18T14:00:08.983Z,68.80
2018-03-18T14:02:34.921Z,69.00
2018-03-18T14:05:00.902Z,69.70
2018-03-18T14:07:27.656Z,70.70
2018-03-18T14:09:54.503Z,70.00
2018-03-18T14:12:20.514Z,70.00
2018-03-18T14:14:47.561Z,71.90
2018-03-18T14:17:13.610Z,71.20
2018-03-18T14:19:39.625Z,70.00
2018-03-18T14:22:05.622Z,69.10
2018-03-18T14:24:31.685Z,70.00
2018-03-18T14:26:57.681Z,70.10
2018-03-18T14:29:24.402Z,70.40
2018-03-18T14:31:50.517Z,70.40
2018-03-18T14:34:16.519Z,70.60
2018-03-18T14:36:42.501Z,70.50
2018-03-18T14:39:09.255Z,71.00
2018-03-18T14:41:35.246Z,71.00
2018-03-18T14:44:01.962Z,71.30
2018-03-18T14:46:28.087Z,71.30
2018-03-18T14:48:54.061Z,70.80
2018-03-18T14:51:20.082Z,71.20
2018-03-18T14:53:46.052Z,70.80
2018-03-18T14:56:12.065Z,71.20
2018-03-18T14:58:38.012Z,71.20
2018-03-18T15:01:03.980Z,71.80
2018-03-18T15:03:30.036Z,71.70
2018-03-18T15:05:55.996Z,71.20
2018-03-18T15:08:22.705Z,71.40
2018-03-18T15:10:48.673Z,71.40
2018-03-18T15:13:14.931Z,70.40
2018-03-18T15:15:44.765Z,71.30
2018-03-18T15:18:11.753Z,71.50
2018-03-18T15:20:38.493Z,71.00
2018-03-18T15:23:04.570Z,71.00
2018-03-18T15:25:30.575Z,71.80
2018-03-18T15:27:56.560Z,70.90
2018-03-18T15:30:23.325Z,71.30
2018-03-18T15:32:49.296Z,71.30
2018-03-18T15:35:15.434Z,72.00
2018-03-18T15:37:41.412Z,71.50
2018-03-18T15:40:07.380Z,72.00
2018-03-18T15:42:33.414Z,72.20
2018-03-18T15:45:00.118Z,71.90
2018-03-18T15:47:26.121Z,71.80
2018-03-18T15:49:52.077Z,71.70
2018-03-18T15:52:18.240Z,71.30
2018-03-18T15:54:44.248Z,71.50
2018-03-18T15:57:10.250Z,71.30
2018-03-18T15:59:36.236Z,72.00
2018-03-18T16:02:02.285Z,71.60
2018-03-18T16:04:28.259Z,71.60
2018-03-18T16:06:54.214Z,71.70
2018-03-18T16:09:20.344Z,72.70
2018-03-18T16:11:46.317Z,71.30
2018-03-18T16:14:13.210Z,72.40
2018-03-18T16:16:39.186Z,72.40
2018-03-18T16:19:05.176Z,72.20
2018-03-18T16:21:31.145Z,72.10
2018-03-18T16:23:57.303Z,73.00
2018-03-18T16:26:23.218Z,72.00
2018-03-18T16:28:49.227Z,72.50
2018-03-18T16:31:15.208Z,72.80
2018-03-18T16:33:41.928Z,72.20
2018-03-18T16:36:08.052Z,72.20
2018-03-18T16:38:34.009Z,72.80
2018-03-18T16:41:00.766Z,72.40
2018-03-18T16:43:26.736Z,72.40
2018-03-18T16:45:52.736Z,73.00
2018-03-18T16:48:18.700Z,73.20
2018-03-18T16:50:45.402Z,72.90
2018-03-18T16:53:12.010Z,72.90
2018-03-18T16:55:38.028Z,73.00
2018-03-18T16:58:04.012Z,73.20
2018-03-18T17:00:29.972Z,73.70
2018-03-18T17:02:55.976Z,74.30
2018-03-18T17:05:22.683Z,73.90
2018-03-18T17:07:48.798Z,73.90
2018-03-18T17:10:14.844Z,74.00
2018-03-18T17:12:40.865Z,74.10
2018-03-18T17:15:06.949Z,73.80
2018-03-18T17:17:32.921Z,74.20
2018-03-18T17:19:58.905Z,73.30
2018-03-18T17:22:24.870Z,73.30
2018-03-18T17:24:51.636Z,74.10
2018-03-18T17:27:17.625Z,74.10
2018-03-18T17:29:43.715Z,73.80
2018-03-18T17:32:09.675Z,74.10
2018-03-18T17:34:35.676Z,74.00
2018-03-18T17:37:01.667Z,74.00
2018-03-18T17:39:28.536Z,73.90
2018-03-18T17:41:55.125Z,73.50
2018-03-18T17:44:21.109Z,73.90
2018-03-18T17:46:47.201Z,74.00
2018-03-18T17:49:13.162Z,73.60
2018-03-18T17:51:39.148Z,73.80
2018-03-18T17:54:05.110Z,73.20
2018-03-18T17:56:31.088Z,73.20
2018-03-18T17:58:57.061Z,73.50
2018-03-18T18:01:23.197Z,72.60
2018-03-18T18:03:49.186Z,73.00
2018-03-18T18:06:15.158Z,73.10
2018-03-18T18:08:41.140Z,73.30
2018-03-18T18:11:07.122Z,72.40
2018-03-18T18:13:33.297Z,73.60
2018-03-18T18:16:00.031Z,73.50
2018-03-18T18:18:26.135Z,73.50
2018-03-18T18:20:52.093Z,73.70
2018-03-18T18:23:18.088Z,73.00
2018-03-18T18:25:44.066Z,73.50
2018-03-18T18:28:10.066Z,73.50
2018-03-18T18:30:36.804Z,73.00
2018-03-18T18:33:03.528Z,72.80
2018-03-18T18:35:29.477Z,72.80
2018-03-18T18:37:56.193Z,72.70
2018-03-18T18:40:22.197Z,72.70
2018-03-18T18:42:48.154Z,72.80
2018-03-18T18:45:14.307Z,72.80
2018-03-18T18:47:40.274Z,73.40
2018-03-18T18:50:06.277Z,72.80
2018-03-18T18:52:32.281Z,73.30
2018-03-18T18:54:58.294Z,73.30
2018-03-18T18:57:24.276Z,73.40
2018-03-18T18:59:50.231Z,73.80
2018-03-18T19:02:16.346Z,73.80
2018-03-18T19:04:43.062Z,73.60
2018-03-18T19:07:09.082Z,73.70
2018-03-18T19:09:35.073Z,73.30
2018-03-18T19:12:01.072Z,73.80
2018-03-18T19:14:27.248Z,73.00
2018-03-18T19:16:53.239Z,73.40
2018-03-18T19:19:19.277Z,73.70
2018-03-18T19:21:45.221Z,73.70
2018-03-18T19:24:11.226Z,73.20
2018-03-18T19:26:37.235Z,73.30
2018-03-18T19:29:03.193Z,73.20
2018-03-18T19:31:36.472Z,73.00
2018-03-18T19:34:02.504Z,73.40
2018-03-18T19:36:28.563Z,73.30
2018-03-18T19:39:01.921Z,73.70
2018-03-18T19:41:27.880Z,73.40
2018-03-18T19:43:54.016Z,73.70
2018-03-18T19:46:20.731Z,73.80
2018-03-18T19:48:47.441Z,74.20
2018-03-18T19:51:13.435Z,74.20
2018-03-18T19:53:39.466Z,74.60
2018-03-18T19:56:05.482Z,73.90
2018-03-18T19:58:31.472Z,74.00
2018-03-18T20:00:58.359Z,74.10
2018-03-18T20:03:24.340Z,74.00
2018-03-18T20:05:50.358Z,74.30
2018-03-18T20:08:17.088Z,74.00
2018-03-18T20:10:43.785Z,74.60
2018-03-18T20:13:09.788Z,74.50
2018-03-18T20:15:35.900Z,74.40
2018-03-18T20:18:02.014Z,74.40
2018-03-18T20:20:28.726Z,73.60
2018-03-18T20:22:54.734Z,73.60
2018-03-18T20:25:20.696Z,73.60
2018-03-18T20:27:47.447Z,74.50
2018-03-18T20:30:13.428Z,74.60
2018-03-18T20:32:39.383Z,74.30
2018-03-18T20:35:06.245Z,74.10
2018-03-18T20:37:32.204Z,74.00
2018-03-18T20:39:58.231Z,73.50
2018-03-18T20:42:24.226Z,73.50
2018-03-18T20:44:50.214Z,74.10
2018-03-18T20:47:16.942Z,74.00
2018-03-18T20:49:43.688Z,73.90
2018-03-18T20:52:10.433Z,74.50
2018-03-18T20:54:37.160Z,74.10
2018-03-18T20:57:03.277Z,74.00
2018-03-18T20:59:29.254Z,73.70
2018-03-18T21:01:55.259Z,74.10
2018-03-18T21:04:21.237Z,73.90
2018-03-18T21:06:47.312Z,73.90
2018-03-18T21:09:13.271Z,74.40
2018-03-18T21:11:39.299Z,74.40
2018-03-18T21:14:05.443Z,74.70
2018-03-18T21:16:31.451Z,74.20
2018-03-18T21:18:57.414Z,74.50
2018-03-18T21:21:24.128Z,74.80
2018-03-18T21:23:50.137Z,74.80
2018-03-18T21:26:16.105Z,74.60
2018-03-18T21:28:42.225Z,74.40
2018-03-18T21:31:08.918Z,75.00
2018-03-18T21:33:34.918Z,75.00
2018-03-18T21:36:00.873Z,75.00
2018-03-18T21:38:27.009Z,75.00
2018-03-18T21:40:53.006Z,75.00
2018-03-18T21:43:18.985Z,75.60
2018-03-18T21:45:45.138Z,74.80
2018-03-18T21:48:11.125Z,74.90
2018-03-18T21:50:37.885Z,75.60
2018-03-18T21:53:03.824Z,75.60
2018-03-18T21:55:29.835Z,75.50
2018-03-18T21:57:55.816Z,75.10
2018-03-18T22:00:22.711Z,75.30
2018-03-18T22:02:48.712Z,75.30
2018-03-18T22:05:14.748Z,74.90
2018-03-18T22:07:41.441Z,74.70
2018-03-18T22:10:07.421Z,74.70
2018-03-18T22:12:33.442Z,75.20
2018-03-18T22:14:59.706Z,75.00
2018-03-18T22:17:25.681Z,75.20
2018-03-18T22:19:51.688Z,75.50
2018-03-18T22:22:17.647Z,75.30
2018-03-18T22:24:43.622Z,75.50
2018-03-18T22:27:10.361Z,75.20
2018-03-18T22:29:37.115Z,75.30
2018-03-18T22:32:03.228Z,75.20
2018-03-18T22:34:29.919Z,75.20
2018-03-18T22:36:55.919Z,75.20
2018-03-18T22:39:21.873Z,74.60
2018-03-18T22:41:47.882Z,74.70
2018-03-18T22:44:13.845Z,74.40
2018-03-18T22:46:39.945Z,74.00
2018-03-18T22:49:05.935Z,74.40
2018-03-18T22:51:31.916Z,74.20
2018-03-18T22:53:58.660Z,74.20
2018-03-18T22:56:25.360Z,74.40
2018-03-18T22:58:51.474Z,74.40
2018-03-18T23:01:17.461Z,74.20
2018-03-18T23:03:44.165Z,74.50
2018-03-18T23:06:10.136Z,74.50
2018-03-18T23:08:36.122Z,74.80
2018-03-18T23:11:02.090Z,74.80
2018-03-18T23:13:28.317Z,75.00
2018-03-18T23:15:54.289Z,74.90
2018-03-18T23:18:20.277Z,74.60
2018-03-18T23:20:46.240Z,74.60
2018-03-18T23:23:12.960Z,74.80
2018-03-18T23:25:38.933Z,74.80
2018-03-18T23:28:04.898Z,75.30
2018-03-18T23:30:30.986Z,74.90
2018-03-18T23:32:56.940Z,75.00
2018-03-18T23:35:22.967Z,74.80
2018-03-18T23:37:48.942Z,75.10
2018-03-18T23:40:14.931Z,75.30
2018-03-18T23:42:40.973Z,75.10
2018-03-18T23:45:06.919Z,74.90
2018-03-18T23:47:32.888Z,75.40
2018-03-18T23:49:58.897Z,75.70
2018-03-18T23:52:24.851Z,75.70
2018-03-18T23:54:50.947Z,75.70
2018-03-18T23:57:16.917Z,75.20
2018-03-18T23:59:43.640Z,75.00
